Catania, Italy

10:08 AM CEST on October 22, 2014 (GMT +0200)
Zona Industriale - Catania | Change Station
CLOSE
Current Station
Personal Weather Station
Location: (*Meteosicilia*), Sicily
Elevation: 60 ft
Nearby Weather Stations
Active Advisory: Wind

Elev 60 ft 37.45 °N, 15.04 °E | Updated 4 seconds ago

Clear
Clear
73.2 °F
Feels Like 76 °F
N
8.0
Wind Variable Wind from WNW
Gusts 9.0 mph

Today
High -- | Low -- °F
--% Chance of Precip.
Yesterday
High -- | Low -- °F
Precip. -- in
7:14 AM 6:13 PM
Waning Crescent, 3% visible
Pressure 29.77 in
Visibility -9999.0 miles
Clouds
Heat Index 76 °F
Dew Point 61 °F
Humidity 66%
Rainfall 0.00 in
Snow Depth Not available.
UV Not available.
Pollen Not available.
Air Quality Not available.
Flu Activity Not available.
METAR LICZ 220755Z 27013KT CAVOK 23/16 Q1008 RMK SKC VIS MIN 9999 WIND THR28 26013KT A3012 BLU

More Conditions Fewer Conditions

Pressure 29.77 in
Visibility -9999.0 miles
Clouds
Heat Index 76 °F
Dew Point 61 °F
Humidity 66%
Rainfall 0.00 in
Snow Depth Not available.
UV Not available.
Pollen Not available.
Air Quality Not available.
Flu Activity Not available.
METAR LICZ 220755Z 27013KT CAVOK 23/16 Q1008 RMK SKC VIS MIN 9999 WIND THR28 26013KT A3012 BLU

More Conditions Fewer Conditions

10-Day Weather Forecast

Almanac

Astronomy

Oct. 22, 2014 Rise Set
Actual Time 7:14 AM CEST 6:13 PM CEST
Civil Twilight 6:47 AM CEST 6:40 PM CEST
Nautical Twilight 6:17 AM CEST 7:10 PM CEST
Astronomical Twilight 5:46 AM CEST 7:40 PM CEST
Moon 5:40 AM CEST 5:29 PM CEST
Length of Visible Light 11h 52m
Length of Day
10h 59m
Tomorrow will be 2m 15s shorter.
Waning Crescent, 3% of the Moon is Illuminated
Today
Waning Crescent
Oct 23
New
Oct 30
First Quarter
Nov 6
Full
Nov 14
Last Quarter

Yesterday's Extremes

Country Highs Country Lows

Community

WunderPhotos

Upload Photos

1,763,889 photos uploaded!

Nearby

Snow Depth

Not available.

Earthquake Activity

City Distance Mag. Time & Date
No recent earthquake activity has been reported nearby.
Minimum magnitude displayed is 2.5.

Coastal Water Temperatures

Place Temperature
No Stations Reporting

Nearby Weather Stations